| time (UTC) | temp F | wind direction | speed MPH | gust MPH | rain 1hr in | rain 24hr in | rain mn in | humidity % | barometer mb |
| 20260509100059 | 43 | 284 | 0.0 | 2.0 | 0.00 | 0.05 | 0.00 | 99 | 1007.7 |
| 20260509094600 | 43 | 284 | 0.0 | 0.0 | 0.00 | 0.05 | 0.00 | 98 | 1007.6 |
| 20260509093058 | 42 | 284 | 0.0 | 1.0 | 0.00 | 0.05 | 0.00 | 99 | 1007.5 |
| 20260509091622 | 41 | 284 | 0.0 | 1.0 | 0.00 | 0.05 | 0.00 | 100 | 1007.7 |
| 20260509090054 | 41 | 284 | 0.0 | 0.0 | 0.00 | 0.05 | 0.00 | 98 | 1007.7 |
| 20260509084551 | 41 | 284 | 0.0 | 0.0 | 0.00 | 0.05 | 0.00 | 97 | 1007.9 |
| 20260509083054 | 41 | 284 | 0.0 | 0.0 | 0.00 | 0.05 | 0.00 | 98 | 1007.9 |
| 20260509081549 | 41 | 284 | 0.0 | 0.0 | 0.00 | 0.05 | 0.00 | 97 | 1008.0 |
| 20260509080052 | 41 | 284 | 0.0 | 2.0 | 0.00 | 0.05 | 0.00 | 98 | 1008.1 |
| 20260509074552 | 41 | 284 | 0.0 | 1.0 | 0.00 | 0.05 | 0.00 | 96 | 1008.2 |
| 20260509073114 | 41 | 284 | 0.0 | 0.0 | 0.00 | 0.05 | 0.00 | 95 | 1008.4 |
| 20260509071542 | 41 | 284 | 0.0 | 2.0 | 0.00 | 0.05 | 0.00 | 95 | 1008.5 |
| 20260509070044 | 40 | 284 | 0.0 | 2.0 | 0.00 | 0.05 | 0.00 | 96 | 1008.6 |
| 20260509064539 | 40 | 284 | 1.0 | 3.0 | 0.00 | 0.05 | 0.00 | 97 | 1008.8 |
| 20260509063038 | 40 | 284 | 0.0 | 3.0 | 0.00 | 0.05 | 0.00 | 97 | 1008.9 |
| 20260509061536 | 40 | 284 | 0.0 | 2.0 | 0.00 | 0.05 | 0.00 | 97 | 1009.2 |
| 20260509060045 | 40 | 284 | 2.0 | 4.0 | 0.00 | 0.06 | 0.00 | 99 | 1009.4 |
| 20260509054532 | 40 | 284 | 1.0 | 3.0 | 0.00 | 0.06 | 0.00 | 99 | 1009.6 |
| 20260509053033 | 40 | 284 | 0.0 | 1.0 | 0.00 | 0.06 | 0.00 | 97 | 1009.6 |
| 20260509051527 | 41 | 284 | 0.0 | 2.0 | 0.00 | 0.06 | 0.00 | 99 | 1009.8 |
| 20260509050025 | 41 | 284 | 2.0 | 3.0 | 0.00 | 0.06 | 0.00 | 100 | 1010.0 |
| 20260509044533 | 40 | 284 | 0.0 | 3.0 | 0.00 | 0.06 | 0.00 | 99 | 1010.1 |
| 20260509043029 | 40 | 284 | 1.0 | 2.0 | 0.00 | 0.06 | 0.00 | 100 | 1010.2 |
| 20260509041517 | 39 | 284 | 0.0 | 1.0 | 0.00 | 0.06 | 0.00 | 100 | 1010.3 |
| 20260509040014 | 39 | 284 | 0.0 | 1.0 | 0.00 | 0.06 | 0.06 | 100 | 1010.5 |
| 20260509034514 | 40 | 284 | 0.0 | 1.0 | 0.00 | 0.06 | 0.06 | 99 | 1010.5 |
| 20260509033014 | 40 | 284 | 0.0 | 2.0 | 0.00 | 0.06 | 0.06 | 98 | 1010.4 |
| 20260509031516 | 40 | 284 | 0.0 | 2.0 | 0.00 | 0.06 | 0.06 | 97 | 1010.5 |
| 20260509030012 | 41 | 284 | 0.0 | 0.0 | 0.00 | 0.07 | 0.06 | 97 | 1010.6 |
| 20260509024512 | 41 | 284 | 0.0 | 1.0 | 0.00 | 0.07 | 0.06 | 95 | 1010.6 |
| 20260509023011 | 41 | 284 | 0.0 | 1.0 | 0.00 | 0.07 | 0.06 | 92 | 1010.6 |
| 20260509021511 | 42 | 284 | 0.0 | 0.0 | 0.00 | 0.07 | 0.06 | 90 | 1010.5 |
| 20260509020010 | 43 | 284 | 0.0 | 0.0 | 0.00 | 0.07 | 0.06 | 87 | 1010.5 |
| 20260509014509 | 43 | 284 | 0.0 | 0.0 | 0.00 | 0.07 | 0.06 | 86 | 1010.5 |
| 20260509013009 | 44 | 284 | 0.0 | 0.0 | 0.00 | 0.07 | 0.06 | 84 | 1010.4 |
| 20260509011509 | 45 | 284 | 0.0 | 0.0 | 0.00 | 0.07 | 0.06 | 81 | 1010.4 |
| 20260509010016 | 47 | 285 | 0.0 | 0.0 | 0.00 | 0.07 | 0.06 | 77 | 1010.2 |
| 20260509004507 | 49 | 284 | 0.0 | 0.0 | 0.00 | 0.07 | 0.06 | 76 | 1010.0 |
| 20260509003017 | 50 | 285 | 0.0 | 0.0 | 0.00 | 0.07 | 0.06 | 75 | 1009.8 |
| 20260509001507 | 52 | 284 | 0.0 | 0.0 | 0.00 | 0.07 | 0.06 | 65 | 1009.7 |
| 20260509000006 | 53 | 284 | 0.0 | 3.0 | 0.00 | 0.07 | 0.06 | 60 | 1009.7 |
| 20260508234507 | 54 | 284 | 0.0 | 3.0 | 0.00 | 0.07 | 0.06 | 57 | 1009.6 |
| 20260508233006 | 54 | 284 | 1.0 | 5.0 | 0.00 | 0.07 | 0.06 | 57 | 1009.6 |
| 20260508231505 | 55 | 276 | 2.0 | 6.0 | 0.00 | 0.07 | 0.06 | 53 | 1009.5 |
| 20260508230007 | 56 | 277 | 2.0 | 7.0 | 0.00 | 0.07 | 0.06 | 51 | 1009.5 |
| 20260508224516 | 57 | 289 | 2.0 | 8.0 | 0.00 | 0.07 | 0.06 | 48 | 1009.4 |
| 20260508223013 | 57 | 288 | 2.0 | 7.0 | 0.00 | 0.07 | 0.06 | 48 | 1009.4 |
| 20260508221504 | 58 | 236 | 2.0 | 9.0 | 0.00 | 0.07 | 0.06 | 46 | 1009.3 |
| 20260508220001 | 57 | 288 | 3.0 | 13.0 | 0.00 | 0.07 | 0.06 | 47 | 1009.3 |
| 20260508214612 | 58 | 274 | 2.0 | 7.0 | 0.00 | 0.07 | 0.06 | 48 | 1009.4 |
| 20260508213059 | 58 | 278 | 2.0 | 10.0 | 0.00 | 0.07 | 0.06 | 51 | 1009.4 |
| 20260508213002 | 58 | 208 | 2.0 | 10.0 | 0.00 | 0.07 | 0.06 | 51 | 1009.4 |
| 20260508211601 | 58 | 267 | 3.0 | 7.0 | 0.00 | 0.07 | 0.06 | 52 | 1009.4 |
| 20260508210059 | 58 | 278 | 3.0 | 8.0 | 0.00 | 0.07 | 0.06 | 53 | 1009.5 |
| 20260508204557 | 58 | 290 | 2.0 | 7.0 | 0.00 | 0.07 | 0.06 | 52 | 1009.6 |
| 20260508203100 | 56 | 290 | 1.0 | 7.0 | 0.00 | 0.07 | 0.06 | 55 | 1009.8 |
| 20260508201553 | 58 | 284 | 1.0 | 4.0 | 0.00 | 0.07 | 0.06 | 57 | 1009.9 |
| 20260508200049 | 57 | 273 | 3.0 | 10.0 | 0.00 | 0.07 | 0.06 | 56 | 1010.2 |
| 20260508194545 | 58 | 319 | 2.0 | 6.0 | 0.00 | 0.07 | 0.06 | 56 | 1010.3 |
| 20260508193057 | 56 | 278 | 5.0 | 10.0 | 0.00 | 0.07 | 0.06 | 58 | 1010.6 |
| 20260508191544 | 54 | 298 | 1.0 | 5.0 | 0.00 | 0.07 | 0.06 | 59 | 1010.8 |
| 20260508190040 | 54 | 293 | 2.0 | 10.0 | 0.00 | 0.07 | 0.06 | 61 | 1011.0 |
| 20260508184543 | 55 | 284 | 3.0 | 13.0 | 0.00 | 0.07 | 0.06 | 59 | 1011.0 |
| 20260508183038 | 56 | 290 | 2.0 | 7.0 | 0.00 | 0.07 | 0.06 | 59 | 1010.9 |
| 20260508181541 | 55 | 274 | 5.0 | 9.0 | 0.00 | 0.07 | 0.06 | 61 | 1011.1 |
| 20260508180038 | 54 | 189 | 3.0 | 11.0 | 0.00 | 0.07 | 0.06 | 63 | 1011.3 |
| 20260508174536 | 54 | 344 | 3.0 | 9.0 | 0.00 | 0.07 | 0.06 | 58 | 1011.4 |
| 20260508173030 | 53 | 264 | 4.0 | 8.0 | 0.00 | 0.07 | 0.06 | 66 | 1011.5 |
| 20260508171539 | 53 | 260 | 1.0 | 5.0 | 0.00 | 0.07 | 0.06 | 72 | 1011.6 |
| 20260508170024 | 52 | 319 | 1.0 | 8.0 | 0.00 | 0.07 | 0.06 | 74 | 1011.8 |
| 20260508164520 | 50 | 246 | 6.0 | 11.0 | 0.00 | 0.07 | 0.06 | 75 | 1011.9 |
| 20260508163020 | 50 | 300 | 2.0 | 8.0 | 0.00 | 0.07 | 0.06 | 79 | 1011.9 |
| 20260508161515 | 49 | 251 | 4.0 | 12.0 | 0.00 | 0.07 | 0.06 | 80 | 1012.1 |
| 20260508160025 | 48 | 286 | 1.0 | 9.0 | 0.00 | 0.07 | 0.06 | 87 | 1012.3 |
| 20260508154511 | 49 | 288 | 4.0 | 7.0 | 0.00 | 0.07 | 0.06 | 87 | 1012.3 |
| 20260508153006 | 47 | 213 | 4.0 | 6.0 | 0.00 | 0.07 | 0.06 | 91 | 1012.4 |
| 20260508151503 | 46 | 305 | 5.0 | 9.0 | 0.00 | 0.07 | 0.06 | 95 | 1012.4 |
| 20260508150100 | 45 | 197 | 4.0 | 8.0 | 0.00 | 0.07 | 0.06 | 97 | 1012.4 |
| 20260508144556 | 44 | 198 | 3.0 | 6.0 | 0.00 | 0.07 | 0.06 | 99 | 1012.3 |
| 20260508143103 | 43 | 188 | 2.0 | 5.0 | 0.00 | 0.07 | 0.06 | 100 | 1012.3 |
| 20260508141556 | 42 | 274 | 0.0 | 6.0 | 0.00 | 0.07 | 0.06 | 100 | 1012.5 |
| 20260508140050 | 41 | 274 | 3.0 | 6.0 | 0.00 | 0.07 | 0.06 | 100 | 1012.5 |
| 20260508134548 | 41 | 170 | 0.0 | 5.0 | 0.01 | 0.07 | 0.06 | 100 | 1012.4 |
| 20260508133055 | 41 | 214 | 2.0 | 5.0 | 0.01 | 0.07 | 0.06 | 100 | 1012.1 |
| 20260508131547 | 41 | 269 | 0.0 | 6.0 | 0.03 | 0.07 | 0.06 | 100 | 1012.2 |
| 20260508130053 | 40 | 308 | 1.0 | 5.0 | 0.04 | 0.07 | 0.06 | 100 | 1012.4 |
| 20260508124546 | 40 | 279 | 2.0 | 7.0 | 0.04 | 0.06 | 0.05 | 100 | 1012.5 |
| 20260508123044 | 40 | 276 | 2.0 | 8.0 | 0.04 | 0.06 | 0.05 | 100 | 1012.4 |
| 20260508121559 | 41 | 272 | 3.0 | 7.0 | 0.02 | 0.04 | 0.03 | 100 | 1012.3 |
| 20260508120041 | 41 | 290 | 8.0 | 14.0 | 0.01 | 0.03 | 0.02 | 100 | 1012.2 |
| 20260508114538 | 42 | 298 | 2.0 | 5.0 | 0.00 | 0.02 | 0.01 | 98 | 1011.9 |
| 20260508113037 | 42 | 284 | 2.0 | 7.0 | 0.00 | 0.02 | 0.01 | 98 | 1011.3 |
| 20260508111536 | 42 | 279 | 1.0 | 4.0 | 0.00 | 0.02 | 0.01 | 98 | 1011.3 |
| 20260508110045 | 42 | 288 | 4.0 | 9.0 | 0.00 | 0.02 | 0.01 | 99 | 1011.1 |
| 20260508104534 | 42 | 242 | 0.0 | 3.0 | 0.00 | 0.02 | 0.01 | 100 | 1010.9 |
| 20260508103033 | 42 | 242 | 1.0 | 7.0 | 0.00 | 0.02 | 0.01 | 100 | 1010.6 |
| 20260508101535 | 42 | 199 | 0.0 | 3.0 | 0.00 | 0.02 | 0.01 | 100 | 1010.7 |